Terminal Aerodrome Forecast
Issued by NWS

Home | Current Version | Previous Version | Text Only | Print | Product List | Glossary On
Versions: 1 2 3 4 5 6 7 8 9 10 11 12 13 14 15 16 17 18 19 20 21
000
FTUS46 KMFR 181150
TAFOTH
TAF
KOTH 181150Z 1812/1912 VRB03KT P6SM SCT005
      TEMPO 1812/1816 4SM BR BKN005
     FM181600 35010KT P6SM SKC
     FM182000 35018G30KT P6SM SKC
     FM190300 36010KT P6SM OVC008
     FM190700 VRB03KT P6SM OVC004=

USA.gov is the U.S. government's official web portal to all federal, state and local government web resources and services.